Terminal Aerodrome Forecast
Issued by NWS

Home | Current Version | Previous Version | Graphics & Text | Print | Product List | Glossary On
Versions: 1 2 3 4 5 6 7 8 9 10 11 12 13 14 15 16 17 18 19
000
FTUS43 KICT 152154 AAA
TAFHUT
TAF AMD
KHUT 152154Z 1522/1618 06006KT 5SM -FZRA BR SCT005 OVC010
     FM152300 06007KT 3SM RA SCT005 OVC010
      TEMPO 1601/1605 1SM RA BR OVC005
     FM160500 08007KT 2SM RA BR OVC005
     FM161600 VRB06KT 5SM BR SCT005 OVC015=

USA.gov is the U.S. government's official web portal to all federal, state and local government web resources and services.